Decoded Metar for KC62 ( in ) (IATA:) | Meteo·Mobile Aviation Weather
aviador You're here:

KC62 Decoded Metar

in
Report Time2018-12-17 15:15:00
UTC Time2018-12-17 15:09:14
Flight Rules vfr VFR
Wind320° at 06 kt
W.Rank320° ranks 15
Current wind is above 320° avg. (5.9)
Visibility9999 m
Phenomena:N/A
Clouds:N/A
Expected CloudBase > 1,600 ft AGL from Temp-Dew spread
CeilingNone
Temp01°C
Dew Point-3°C (75% RH)
AAT-3.5°C
QNH1020 hPa
Raw Report
KC62 171515Z AUTO 32006KT 10SM CLR 01/M03 A3011 RMK AO2
T00161035=

Extra information for KC62:More info

Social comments